createdAt,value
2023-03-31T00:02:14.341Z,19.90
2023-03-31T00:04:52.383Z,19.90
2023-03-31T00:07:22.132Z,19.90
2023-03-31T00:09:49.023Z,19.90
2023-03-31T00:12:16.580Z,19.90
2023-03-31T00:14:44.164Z,19.90
2023-03-31T00:17:11.675Z,19.90
2023-03-31T00:19:40.152Z,19.90
2023-03-31T00:22:07.597Z,19.90
2023-03-31T00:24:35.583Z,19.90
2023-03-31T00:27:04.483Z,19.90
2023-03-31T00:29:31.443Z,19.80
2023-03-31T00:31:59.943Z,19.90
2023-03-31T00:34:27.187Z,19.90
2023-03-31T00:36:56.391Z,19.90
2023-03-31T00:39:24.673Z,19.90
2023-03-31T00:41:51.450Z,19.90
2023-03-31T00:44:24.621Z,19.90
2023-03-31T00:47:12.386Z,19.90
2023-03-31T00:49:50.572Z,19.90
2023-03-31T00:52:43.763Z,19.90
2023-03-31T00:55:14.474Z,19.90
2023-03-31T00:57:42.969Z,19.80
2023-03-31T01:00:15.561Z,19.90
2023-03-31T01:02:51.504Z,19.90
2023-03-31T01:05:22.273Z,19.90
2023-03-31T01:07:50.947Z,19.90
2023-03-31T01:10:18.279Z,19.90
2023-03-31T01:12:49.873Z,19.90
2023-03-31T01:15:16.740Z,19.90
2023-03-31T01:17:47.435Z,19.90
2023-03-31T01:20:33.135Z,19.90
2023-03-31T01:23:37.695Z,19.90
2023-03-31T01:26:20.726Z,19.90
2023-03-31T01:28:52.242Z,19.90
2023-03-31T01:31:46.403Z,19.80
2023-03-31T01:34:31.036Z,19.90
2023-03-31T01:37:24.585Z,19.90
2023-03-31T01:40:22.289Z,19.90
2023-03-31T01:42:59.437Z,19.90
2023-03-31T01:45:37.829Z,19.90
2023-03-31T01:48:14.774Z,19.90
2023-03-31T01:50:46.609Z,19.90
2023-03-31T01:53:48.554Z,19.90
2023-03-31T01:56:28.646Z,19.90
2023-03-31T01:59:04.983Z,19.90
2023-03-31T02:01:49.636Z,19.90
2023-03-31T02:04:20.847Z,19.90
2023-03-31T02:06:56.174Z,19.90
2023-03-31T02:09:28.097Z,19.90
2023-03-31T02:11:56.993Z,19.90
2023-03-31T02:14:28.025Z,19.90
2023-03-31T02:16:58.443Z,19.90
2023-03-31T02:19:29.575Z,19.90
2023-03-31T02:21:58.936Z,19.90
2023-03-31T02:24:28.009Z,19.90
2023-03-31T02:27:06.963Z,19.90
2023-03-31T02:29:34.284Z,19.90
2023-03-31T02:32:22.969Z,19.90
2023-03-31T02:34:49.875Z,19.90
2023-03-31T02:37:16.881Z,19.90
2023-03-31T02:39:47.910Z,19.90
2023-03-31T02:42:15.206Z,19.90
2023-03-31T02:44:42.149Z,19.80
2023-03-31T02:47:12.845Z,19.80
2023-03-31T02:49:53.613Z,19.80
2023-03-31T02:52:32.615Z,19.80
2023-03-31T02:55:30.574Z,19.90
2023-03-31T02:58:28.757Z,19.90
2023-03-31T03:01:06.538Z,19.80
2023-03-31T03:04:06.531Z,19.90
2023-03-31T03:06:44.493Z,19.80
2023-03-31T03:09:36.029Z,19.90
2023-03-31T03:12:28.472Z,19.80
2023-03-31T03:15:06.475Z,19.80
2023-03-31T03:17:40.749Z,19.90
2023-03-31T03:20:09.568Z,19.90
2023-03-31T03:22:37.987Z,19.90
2023-03-31T03:25:06.404Z,19.80
2023-03-31T03:27:33.075Z,19.90
2023-03-31T03:29:59.735Z,19.80
2023-03-31T03:32:26.506Z,19.80
2023-03-31T03:34:53.206Z,19.80
2023-03-31T03:37:19.898Z,19.80
2023-03-31T03:39:46.554Z,19.80
2023-03-31T03:42:13.257Z,19.80
2023-03-31T03:44:39.969Z,19.80
2023-03-31T03:47:06.684Z,19.90
2023-03-31T03:49:33.359Z,19.80
2023-03-31T03:52:00.211Z,19.70
2023-03-31T03:54:26.870Z,19.60
2023-03-31T03:56:53.538Z,19.70
2023-03-31T03:59:20.255Z,19.80
2023-03-31T04:01:46.956Z,19.80
2023-03-31T04:04:13.978Z,19.80
2023-03-31T04:06:40.653Z,19.80
2023-03-31T04:09:07.602Z,19.80
2023-03-31T04:11:34.924Z,19.80
2023-03-31T04:14:01.659Z,19.80
2023-03-31T04:16:28.478Z,19.80
2023-03-31T04:18:59.688Z,19.80
2023-03-31T04:21:26.400Z,19.80
2023-03-31T04:24:04.744Z,19.80
2023-03-31T04:26:43.168Z,19.80
2023-03-31T04:29:16.353Z,19.80
2023-03-31T04:31:43.614Z,19.80
2023-03-31T04:34:14.768Z,19.80
2023-03-31T04:36:52.205Z,19.80
2023-03-31T04:39:26.843Z,19.80
2023-03-31T04:41:54.197Z,19.80
2023-03-31T04:44:20.843Z,19.80
2023-03-31T04:46:47.669Z,19.90
2023-03-31T04:49:15.025Z,19.80
2023-03-31T04:51:41.676Z,19.80
2023-03-31T04:54:08.495Z,19.80
2023-03-31T04:56:35.257Z,19.80
2023-03-31T04:59:03.863Z,19.90
2023-03-31T05:01:36.157Z,19.90
2023-03-31T05:04:04.365Z,19.90
2023-03-31T05:06:31.121Z,19.90
2023-03-31T05:08:57.805Z,19.80
2023-03-31T05:11:24.490Z,19.90
2023-03-31T05:13:51.175Z,19.90
2023-03-31T05:16:18.357Z,19.90
2023-03-31T05:18:46.246Z,19.80
2023-03-31T05:21:19.246Z,19.90
2023-03-31T05:23:46.492Z,19.90
2023-03-31T05:26:14.093Z,19.90
2023-03-31T05:28:41.415Z,19.80
2023-03-31T05:31:13.147Z,19.80
2023-03-31T05:33:41.858Z,19.90
2023-03-31T05:36:11.190Z,19.90
2023-03-31T05:38:38.824Z,19.90
2023-03-31T05:41:07.003Z,19.90
2023-03-31T05:43:33.721Z,19.80
2023-03-31T05:46:00.474Z,19.90
2023-03-31T05:48:27.295Z,19.90
2023-03-31T05:50:58.591Z,19.90
2023-03-31T05:53:25.967Z,19.80
2023-03-31T05:56:00.181Z,19.80
2023-03-31T05:58:26.902Z,19.80
2023-03-31T06:01:11.699Z,19.90
2023-03-31T06:03:41.578Z,19.80
2023-03-31T06:06:09.461Z,19.90
2023-03-31T06:08:37.801Z,19.90
2023-03-31T06:11:10.308Z,19.90
2023-03-31T06:13:38.040Z,19.90
2023-03-31T06:16:05.680Z,19.90
2023-03-31T06:18:34.990Z,19.90
2023-03-31T06:21:02.323Z,19.90
2023-03-31T06:23:29.342Z,19.90
2023-03-31T06:26:03.524Z,19.90
2023-03-31T06:28:31.169Z,19.90
2023-03-31T06:31:08.770Z,19.90
2023-03-31T06:33:36.180Z,19.80
2023-03-31T06:36:05.556Z,19.90
2023-03-31T06:38:38.284Z,19.90
2023-03-31T06:41:06.698Z,19.90
2023-03-31T06:43:33.911Z,19.80
2023-03-31T06:46:00.892Z,19.80
2023-03-31T06:48:27.842Z,19.90
2023-03-31T06:50:55.271Z,19.90
2023-03-31T06:53:22.304Z,19.90
2023-03-31T06:55:48.989Z,19.90
2023-03-31T06:58:15.986Z,19.90
2023-03-31T07:00:42.801Z,19.90
2023-03-31T07:03:09.521Z,19.90
2023-03-31T07:05:36.316Z,19.90
2023-03-31T07:08:03.166Z,19.90
2023-03-31T07:10:32.065Z,19.90
2023-03-31T07:12:58.926Z,19.90
2023-03-31T07:15:28.155Z,19.90
2023-03-31T07:18:02.051Z,20.00
2023-03-31T07:20:30.402Z,20.00
2023-03-31T07:22:57.228Z,20.00
2023-03-31T07:25:23.982Z,20.10
2023-03-31T07:27:50.769Z,20.10
2023-03-31T07:30:20.617Z,20.10
2023-03-31T07:32:48.742Z,20.20
2023-03-31T07:35:16.458Z,20.20
2023-03-31T07:37:46.692Z,20.20
2023-03-31T07:40:23.341Z,20.20
2023-03-31T07:42:51.985Z,20.30
2023-03-31T07:45:21.054Z,20.40
2023-03-31T07:47:48.032Z,20.40
2023-03-31T07:50:16.082Z,20.40
2023-03-31T07:52:46.197Z,20.30
2023-03-31T07:55:14.130Z,20.30
2023-03-31T07:57:41.435Z,20.40
2023-03-31T08:00:12.170Z,20.40
2023-03-31T08:02:41.430Z,20.40
2023-03-31T08:05:08.798Z,20.40
2023-03-31T08:07:36.844Z,19.50
2023-03-31T08:10:06.190Z,18.90
2023-03-31T08:12:32.844Z,18.60
2023-03-31T08:14:59.534Z,18.50
2023-03-31T08:17:26.279Z,18.40
2023-03-31T08:19:53.537Z,18.30
2023-03-31T08:22:20.241Z,18.10
2023-03-31T08:24:47.259Z,18.40
2023-03-31T08:27:13.953Z,18.60
2023-03-31T08:29:40.607Z,18.80
2023-03-31T08:32:07.594Z,18.80
2023-03-31T08:34:34.408Z,18.40
2023-03-31T08:37:01.041Z,18.60
2023-03-31T08:39:27.669Z,18.90
2023-03-31T08:42:36.151Z,19.10
2023-03-31T08:45:21.259Z,19.30
2023-03-31T08:48:04.642Z,19.40
2023-03-31T08:50:46.556Z,19.40
2023-03-31T08:53:37.524Z,19.50
2023-03-31T08:56:08.124Z,19.50
2023-03-31T08:58:47.506Z,19.50
2023-03-31T09:01:24.965Z,19.50
2023-03-31T09:04:22.939Z,19.50
2023-03-31T09:07:34.820Z,19.50
2023-03-31T09:10:13.121Z,19.50
2023-03-31T09:13:07.481Z,19.50
2023-03-31T09:16:19.613Z,19.50
2023-03-31T09:18:49.191Z,19.50
2023-03-31T09:21:31.157Z,19.60
2023-03-31T09:24:08.052Z,19.60
2023-03-31T09:26:49.089Z,19.60
2023-03-31T09:29:36.305Z,19.60
2023-03-31T09:32:17.806Z,19.60
2023-03-31T09:34:46.394Z,19.60
2023-03-31T09:37:13.609Z,19.70
2023-03-31T09:39:40.977Z,19.70
2023-03-31T09:42:10.431Z,19.80
2023-03-31T09:44:40.844Z,19.80
2023-03-31T09:47:15.755Z,19.90
2023-03-31T09:49:53.649Z,19.80
2023-03-31T09:52:30.969Z,19.80
2023-03-31T09:55:32.029Z,19.80
2023-03-31T09:58:12.175Z,19.80
2023-03-31T10:00:42.266Z,19.80
2023-03-31T10:03:13.628Z,19.80
2023-03-31T10:05:52.304Z,19.80
2023-03-31T10:08:38.029Z,19.80
2023-03-31T10:11:04.838Z,19.80
2023-03-31T10:14:00.509Z,19.90
2023-03-31T10:16:31.976Z,19.80
2023-03-31T10:19:26.244Z,19.80
2023-03-31T10:21:59.263Z,19.80
2023-03-31T10:24:27.726Z,19.90
2023-03-31T10:26:57.207Z,19.90
2023-03-31T10:29:30.997Z,19.90
2023-03-31T10:32:11.959Z,19.90
2023-03-31T10:34:42.656Z,19.80
2023-03-31T10:37:18.944Z,19.80
2023-03-31T10:39:47.761Z,19.80
2023-03-31T10:42:24.447Z,19.80
2023-03-31T10:45:10.668Z,19.90
2023-03-31T10:47:39.984Z,19.90
2023-03-31T10:50:14.902Z,19.90
2023-03-31T10:52:47.744Z,19.90
2023-03-31T10:55:25.720Z,19.90
2023-03-31T10:58:12.595Z,19.90
2023-03-31T11:00:51.200Z,20.00
2023-03-31T11:03:27.276Z,19.90
2023-03-31T11:05:59.273Z,19.90
2023-03-31T11:08:52.069Z,19.90
2023-03-31T11:11:46.687Z,19.90
2023-03-31T11:14:40.101Z,19.90
2023-03-31T11:17:35.598Z,19.90
2023-03-31T11:20:12.747Z,19.90
2023-03-31T11:22:57.781Z,19.90
2023-03-31T11:25:35.345Z,19.90
2023-03-31T11:28:26.214Z,19.80
2023-03-31T11:31:03.573Z,19.90
2023-03-31T11:33:38.624Z,19.90
2023-03-31T11:36:39.316Z,19.80
2023-03-31T11:39:38.943Z,19.80
2023-03-31T11:42:20.218Z,19.80
2023-03-31T11:44:53.057Z,19.80
2023-03-31T11:47:24.961Z,19.80
2023-03-31T11:49:55.354Z,19.80
2023-03-31T11:52:34.752Z,19.80
2023-03-31T11:55:15.284Z,19.80
2023-03-31T11:57:56.732Z,19.80
2023-03-31T12:00:28.455Z,19.80
2023-03-31T12:03:15.894Z,19.80
2023-03-31T12:05:58.389Z,19.80
2023-03-31T12:08:39.898Z,19.70
2023-03-31T12:11:13.209Z,19.80
2023-03-31T12:14:10.620Z,19.80
2023-03-31T12:16:41.438Z,19.80
2023-03-31T12:19:14.489Z,19.80
2023-03-31T12:22:00.798Z,19.80
2023-03-31T12:24:36.205Z,19.80
2023-03-31T12:27:14.362Z,19.80
2023-03-31T12:30:03.064Z,19.80
2023-03-31T12:32:36.403Z,19.80
2023-03-31T12:35:27.426Z,19.90
2023-03-31T12:38:22.917Z,19.80
2023-03-31T12:41:01.511Z,19.80
2023-03-31T12:44:05.891Z,19.90
2023-03-31T12:46:59.954Z,19.90
2023-03-31T12:49:35.838Z,19.90
2023-03-31T12:52:08.841Z,19.90
2023-03-31T12:55:04.477Z,19.90
2023-03-31T12:57:31.371Z,19.90
2023-03-31T13:00:22.534Z,19.90
2023-03-31T13:02:50.927Z,19.90
2023-03-31T13:05:36.815Z,19.90
2023-03-31T13:08:08.643Z,19.90
2023-03-31T13:10:58.591Z,19.90
2023-03-31T13:13:26.462Z,19.90
2023-03-31T13:15:56.613Z,19.90
2023-03-31T13:18:23.951Z,19.80
2023-03-31T13:21:05.435Z,19.90
2023-03-31T13:23:35.797Z,19.80
2023-03-31T13:26:03.535Z,19.80
2023-03-31T13:28:42.236Z,19.80
2023-03-31T13:31:12.179Z,19.80
2023-03-31T13:33:59.522Z,19.80
2023-03-31T13:36:47.468Z,19.80
2023-03-31T13:39:55.269Z,19.80
2023-03-31T13:42:41.306Z,19.80
2023-03-31T13:45:49.043Z,19.80
2023-03-31T13:48:53.053Z,19.80
2023-03-31T13:51:22.727Z,19.90
2023-03-31T13:54:16.871Z,19.90
2023-03-31T13:57:27.097Z,19.90
2023-03-31T14:00:31.731Z,19.90
2023-03-31T14:03:17.594Z,19.90
2023-03-31T14:06:06.721Z,19.90
2023-03-31T14:08:45.714Z,19.90
2023-03-31T14:11:17.334Z,19.90
2023-03-31T14:13:44.000Z,19.90
2023-03-31T14:16:13.065Z,19.90
2023-03-31T14:18:47.712Z,19.90
2023-03-31T14:21:17.896Z,19.90
2023-03-31T14:24:02.541Z,19.90
2023-03-31T14:26:51.628Z,19.90
2023-03-31T14:29:36.158Z,19.90
2023-03-31T14:32:21.121Z,19.90
2023-03-31T14:35:13.812Z,19.90
2023-03-31T14:37:40.724Z,19.90
2023-03-31T14:40:15.871Z,19.90
2023-03-31T14:42:49.477Z,19.90
2023-03-31T14:45:21.934Z,19.90
2023-03-31T14:48:02.733Z,19.90
2023-03-31T14:50:36.332Z,19.90
2023-03-31T14:53:04.678Z,19.90
2023-03-31T14:55:54.324Z,19.80
2023-03-31T14:58:34.924Z,19.90
2023-03-31T15:01:04.426Z,19.90
2023-03-31T15:03:33.281Z,19.80
2023-03-31T15:06:02.347Z,19.90
2023-03-31T15:08:30.924Z,19.90
2023-03-31T15:11:11.794Z,19.90
2023-03-31T15:13:56.756Z,19.90
2023-03-31T15:16:30.755Z,19.90
2023-03-31T15:19:00.037Z,19.90
2023-03-31T15:21:31.125Z,19.90
2023-03-31T15:23:58.793Z,19.90
2023-03-31T15:26:40.524Z,19.90
2023-03-31T15:29:25.276Z,19.90
2023-03-31T15:31:56.125Z,19.90
2023-03-31T15:34:29.188Z,19.90
2023-03-31T15:36:57.361Z,19.90
2023-03-31T15:39:25.761Z,19.90
2023-03-31T15:41:53.238Z,19.90
2023-03-31T15:44:39.391Z,19.90
2023-03-31T15:47:21.259Z,19.90
2023-03-31T15:49:51.170Z,19.90
2023-03-31T15:52:36.211Z,19.90
2023-03-31T15:55:22.800Z,19.90
2023-03-31T15:57:54.574Z,19.90
2023-03-31T16:00:40.058Z,19.90
2023-03-31T16:03:38.518Z,19.90
2023-03-31T16:06:28.533Z,19.90
2023-03-31T16:09:21.365Z,19.90
2023-03-31T16:11:52.310Z,19.90
2023-03-31T16:14:23.892Z,19.90
2023-03-31T16:16:56.748Z,19.90
2023-03-31T16:19:27.138Z,19.90
2023-03-31T16:21:59.330Z,19.90
2023-03-31T16:24:33.498Z,20.00
2023-03-31T16:27:06.008Z,20.00
2023-03-31T16:29:34.776Z,20.00
2023-03-31T16:32:27.561Z,19.90
2023-03-31T16:35:00.227Z,20.00
2023-03-31T16:37:27.292Z,19.90
2023-03-31T16:39:54.315Z,19.90
2023-03-31T16:42:21.639Z,19.90
2023-03-31T16:45:00.026Z,19.90
2023-03-31T16:47:35.877Z,19.90
2023-03-31T16:50:07.098Z,19.90
2023-03-31T16:52:33.924Z,19.90
2023-03-31T16:55:01.353Z,19.90
2023-03-31T16:57:28.222Z,19.90
2023-03-31T16:59:57.356Z,19.90
2023-03-31T17:02:25.398Z,19.90
2023-03-31T17:04:54.190Z,19.90
2023-03-31T17:07:23.302Z,19.90
2023-03-31T17:09:49.931Z,19.90
2023-03-31T17:12:16.602Z,19.90
2023-03-31T17:14:43.317Z,19.90
2023-03-31T17:17:09.956Z,19.90
2023-03-31T17:19:36.906Z,19.90
2023-03-31T17:22:03.913Z,19.90
2023-03-31T17:24:30.714Z,19.90
2023-03-31T17:26:57.731Z,19.90
2023-03-31T17:29:24.753Z,19.90
2023-03-31T17:31:51.448Z,19.90
2023-03-31T17:34:18.273Z,19.90
2023-03-31T17:36:45.049Z,19.90
2023-03-31T17:39:12.044Z,19.90
2023-03-31T17:41:38.727Z,19.90
2023-03-31T17:44:07.708Z,19.90
2023-03-31T17:46:35.675Z,19.90
2023-03-31T17:49:02.356Z,19.90
2023-03-31T17:51:29.835Z,19.90
2023-03-31T17:53:57.398Z,19.90
2023-03-31T17:56:24.529Z,19.90
2023-03-31T17:58:52.076Z,19.90
2023-03-31T18:01:19.192Z,19.90
2023-03-31T18:03:46.352Z,19.90
2023-03-31T18:06:14.614Z,19.90
2023-03-31T18:08:42.639Z,19.80
2023-03-31T18:11:10.623Z,19.90
2023-03-31T18:13:37.847Z,19.90
2023-03-31T18:16:05.732Z,19.90
2023-03-31T18:18:32.685Z,19.90
2023-03-31T18:21:03.989Z,19.90
2023-03-31T18:23:30.630Z,19.90
2023-03-31T18:25:57.473Z,19.90
2023-03-31T18:28:24.162Z,19.90
2023-03-31T18:30:51.114Z,19.90
2023-03-31T18:33:17.860Z,19.90
2023-03-31T18:35:44.843Z,19.90
2023-03-31T18:38:12.035Z,19.90
2023-03-31T18:40:39.246Z,19.90
2023-03-31T18:43:06.082Z,19.90
2023-03-31T18:45:33.023Z,19.90
2023-03-31T18:47:59.858Z,19.90
2023-03-31T18:50:26.657Z,19.90
2023-03-31T18:52:54.490Z,19.90
2023-03-31T18:55:22.109Z,19.90
2023-03-31T18:57:49.113Z,19.80
2023-03-31T19:00:17.061Z,19.90
2023-03-31T19:02:43.946Z,19.90
2023-03-31T19:05:10.684Z,19.90
2023-03-31T19:07:37.423Z,19.90
2023-03-31T19:10:04.478Z,19.90
2023-03-31T19:12:31.113Z,19.80
2023-03-31T19:14:58.191Z,19.90
2023-03-31T19:17:25.159Z,19.90
2023-03-31T19:19:51.872Z,19.90
2023-03-31T19:22:18.561Z,19.80
2023-03-31T19:24:45.308Z,19.90
2023-03-31T19:27:12.571Z,19.90
2023-03-31T19:29:39.302Z,19.90
2023-03-31T19:32:06.250Z,19.90
2023-03-31T19:34:33.729Z,19.90
2023-03-31T19:37:01.947Z,19.80
2023-03-31T19:39:28.747Z,19.90
2023-03-31T19:41:55.645Z,19.90
2023-03-31T19:44:22.439Z,19.90
2023-03-31T19:46:49.254Z,19.90
2023-03-31T19:49:16.383Z,19.90
2023-03-31T19:51:43.077Z,19.90
2023-03-31T19:54:10.908Z,19.90
2023-03-31T19:56:38.182Z,19.90
2023-03-31T19:59:05.606Z,19.90
2023-03-31T20:01:32.982Z,19.90
2023-03-31T20:04:00.052Z,19.90
2023-03-31T20:06:29.320Z,19.90
2023-03-31T20:08:58.627Z,19.90
2023-03-31T20:11:26.411Z,19.90
2023-03-31T20:13:53.832Z,19.90
2023-03-31T20:16:22.734Z,19.90
2023-03-31T20:18:55.102Z,19.90
2023-03-31T20:21:23.988Z,19.90
2023-03-31T20:23:51.023Z,19.90
2023-03-31T20:26:20.525Z,19.90
2023-03-31T20:28:47.950Z,19.90
2023-03-31T20:31:17.857Z,19.90
2023-03-31T20:33:46.069Z,19.90
2023-03-31T20:36:18.194Z,19.90
2023-03-31T20:38:47.278Z,19.90
2023-03-31T20:41:14.695Z,19.90
2023-03-31T20:43:41.519Z,19.90
2023-03-31T20:46:09.491Z,19.90
2023-03-31T20:48:57.209Z,19.90
2023-03-31T20:51:30.647Z,19.90
2023-03-31T20:53:58.945Z,19.90
2023-03-31T20:56:34.950Z,19.90
2023-03-31T20:59:01.952Z,19.90
2023-03-31T21:01:32.295Z,19.90
2023-03-31T21:04:01.257Z,19.90
2023-03-31T21:06:32.632Z,19.90
2023-03-31T21:08:59.558Z,19.90
2023-03-31T21:11:26.471Z,19.90
2023-03-31T21:13:53.417Z,19.90
2023-03-31T21:16:21.200Z,19.90
2023-03-31T21:18:48.381Z,19.90
2023-03-31T21:21:18.718Z,19.90
2023-03-31T21:23:46.646Z,19.90
2023-03-31T21:26:15.587Z,19.90
2023-03-31T21:28:43.150Z,19.90
2023-03-31T21:31:15.671Z,19.90
2023-03-31T21:33:44.412Z,19.90
2023-03-31T21:36:13.379Z,19.90
2023-03-31T21:38:40.496Z,19.90
2023-03-31T21:41:08.171Z,19.90
2023-03-31T21:43:35.299Z,19.90
2023-03-31T21:46:02.180Z,19.90
2023-03-31T21:48:29.772Z,19.90
2023-03-31T21:51:00.271Z,19.90
2023-03-31T21:53:28.684Z,19.90
2023-03-31T21:55:57.230Z,19.90
2023-03-31T21:58:28.629Z,19.90
2023-03-31T22:01:01.126Z,19.90
2023-03-31T22:03:29.002Z,19.90
2023-03-31T22:05:56.954Z,19.90
2023-03-31T22:08:24.840Z,19.90
2023-03-31T22:10:53.051Z,19.90
2023-03-31T22:13:21.307Z,19.80
2023-03-31T22:15:48.215Z,19.90
2023-03-31T22:18:16.922Z,19.90
2023-03-31T22:20:44.725Z,19.90
2023-03-31T22:23:11.944Z,19.90
2023-03-31T22:25:38.624Z,19.90
2023-03-31T22:28:07.112Z,19.90
2023-03-31T22:30:34.297Z,19.90
2023-03-31T22:33:01.165Z,19.90
2023-03-31T22:35:28.344Z,19.90
2023-03-31T22:37:55.087Z,19.90
2023-03-31T22:40:22.183Z,19.90
2023-03-31T22:42:48.852Z,19.90
2023-03-31T22:45:15.727Z,19.90
2023-03-31T22:47:42.577Z,19.90
2023-03-31T22:50:10.433Z,19.90
2023-03-31T22:52:37.353Z,19.90
2023-03-31T22:55:04.599Z,19.90
2023-03-31T22:57:32.069Z,19.90
2023-03-31T22:59:58.903Z,19.90
2023-03-31T23:02:25.831Z,19.90
2023-03-31T23:04:52.607Z,19.90
2023-03-31T23:07:21.730Z,19.90
2023-03-31T23:09:48.771Z,19.90
2023-03-31T23:12:15.511Z,19.90
2023-03-31T23:14:42.193Z,19.90
2023-03-31T23:17:08.894Z,19.90
2023-03-31T23:19:35.540Z,19.90
2023-03-31T23:22:02.552Z,19.90
2023-03-31T23:24:29.954Z,19.90
2023-03-31T23:26:56.736Z,19.90
2023-03-31T23:29:23.454Z,19.90
2023-03-31T23:31:50.228Z,19.90
2023-03-31T23:34:17.336Z,19.90
2023-03-31T23:36:44.033Z,19.90
2023-03-31T23:39:10.794Z,19.90
2023-03-31T23:41:37.522Z,19.90
2023-03-31T23:44:04.640Z,19.90
2023-03-31T23:46:31.868Z,19.90
2023-03-31T23:48:59.322Z,19.90
2023-03-31T23:51:26.103Z,19.90
2023-03-31T23:53:52.925Z,19.90
2023-03-31T23:56:19.825Z,19.90
2023-03-31T23:58:47.135Z,19.90
